sensor_id;sensor_type;location;lat;lon;timestamp;P1;durP1;ratioP1;P2;durP2;ratioP2
46835;SDS011;32573;51.290;6.926;2022-07-29T00:01:30;2.60;;;1.10;;
46835;SDS011;32573;51.290;6.926;2022-07-29T00:03:59;3.25;;;1.13;;
46835;SDS011;32573;51.290;6.926;2022-07-29T00:06:27;4.13;;;1.23;;
46835;SDS011;32573;51.290;6.926;2022-07-29T00:08:56;4.82;;;1.40;;
46835;SDS011;32573;51.290;6.926;2022-07-29T00:11:25;3.58;;;1.13;;
46835;SDS011;32573;51.290;6.926;2022-07-29T00:13:54;3.63;;;1.00;;
46835;SDS011;32573;51.290;6.926;2022-07-29T00:16:22;2.55;;;1.00;;
46835;SDS011;32573;51.290;6.926;2022-07-29T00:18:50;3.15;;;1.13;;
46835;SDS011;32573;51.290;6.926;2022-07-29T00:21:19;3.30;;;1.17;;
46835;SDS011;32573;51.290;6.926;2022-07-29T00:23:47;3.40;;;1.02;;
46835;SDS011;32573;51.290;6.926;2022-07-29T00:26:15;2.60;;;1.00;;
46835;SDS011;32573;51.290;6.926;2022-07-29T00:28:45;3.55;;;1.20;;
46835;SDS011;32573;51.290;6.926;2022-07-29T00:31:14;3.47;;;1.00;;
46835;SDS011;32573;51.290;6.926;2022-07-29T00:33:42;2.58;;;1.08;;
46835;SDS011;32573;51.290;6.926;2022-07-29T00:36:10;2.38;;;1.00;;
46835;SDS011;32573;51.290;6.926;2022-07-29T00:38:38;1.60;;;0.88;;
46835;SDS011;32573;51.290;6.926;2022-07-29T00:41:08;4.18;;;1.10;;
46835;SDS011;32573;51.290;6.926;2022-07-29T00:43:36;2.78;;;1.00;;
46835;SDS011;32573;51.290;6.926;2022-07-29T00:46:06;3.60;;;1.10;;
46835;SDS011;32573;51.290;6.926;2022-07-29T00:48:34;3.78;;;1.00;;
46835;SDS011;32573;51.290;6.926;2022-07-29T00:51:03;2.13;;;0.90;;
46835;SDS011;32573;51.290;6.926;2022-07-29T00:53:34;2.70;;;1.15;;
46835;SDS011;32573;51.290;6.926;2022-07-29T00:56:04;3.13;;;1.20;;
46835;SDS011;32573;51.290;6.926;2022-07-29T00:58:32;3.83;;;1.10;;
46835;SDS011;32573;51.290;6.926;2022-07-29T01:01:01;2.83;;;1.10;;
46835;SDS011;32573;51.290;6.926;2022-07-29T01:03:31;2.67;;;1.33;;
46835;SDS011;32573;51.290;6.926;2022-07-29T01:05:59;1.95;;;0.88;;
46835;SDS011;32573;51.290;6.926;2022-07-29T01:08:28;3.20;;;1.08;;
46835;SDS011;32573;51.290;6.926;2022-07-29T01:10:56;3.22;;;1.00;;
46835;SDS011;32573;51.290;6.926;2022-07-29T01:13:25;2.78;;;1.00;;
46835;SDS011;32573;51.290;6.926;2022-07-29T01:15:54;2.00;;;0.90;;
46835;SDS011;32573;51.290;6.926;2022-07-29T01:18:28;2.45;;;1.00;;
46835;SDS011;32573;51.290;6.926;2022-07-29T01:21:07;2.45;;;1.00;;
46835;SDS011;32573;51.290;6.926;2022-07-29T01:23:57;2.45;;;1.10;;
46835;SDS011;32573;51.290;6.926;2022-07-29T01:26:41;3.40;;;1.20;;
46835;SDS011;32573;51.290;6.926;2022-07-29T01:29:19;2.30;;;1.00;;
46835;SDS011;32573;51.290;6.926;2022-07-29T01:32:05;2.63;;;1.00;;
46835;SDS011;32573;51.290;6.926;2022-07-29T01:34:56;3.28;;;1.10;;
46835;SDS011;32573;51.290;6.926;2022-07-29T01:39:59;2.00;;;1.00;;
46835;SDS011;32573;51.290;6.926;2022-07-29T01:42:32;3.13;;;1.08;;
46835;SDS011;32573;51.290;6.926;2022-07-29T01:45:08;2.58;;;1.00;;
46835;SDS011;32573;51.290;6.926;2022-07-29T01:47:43;3.13;;;0.90;;
46835;SDS011;32573;51.290;6.926;2022-07-29T01:50:16;2.95;;;1.10;;
46835;SDS011;32573;51.290;6.926;2022-07-29T01:52:49;2.80;;;1.10;;
46835;SDS011;32573;51.290;6.926;2022-07-29T01:55:22;2.28;;;1.00;;
46835;SDS011;32573;51.290;6.926;2022-07-29T01:57:55;2.63;;;1.00;;
46835;SDS011;32573;51.290;6.926;2022-07-29T02:00:27;2.58;;;1.20;;
46835;SDS011;32573;51.290;6.926;2022-07-29T02:02:58;3.30;;;1.08;;
46835;SDS011;32573;51.290;6.926;2022-07-29T02:05:30;4.72;;;1.13;;
46835;SDS011;32573;51.290;6.926;2022-07-29T02:08:02;2.85;;;1.05;;
46835;SDS011;32573;51.290;6.926;2022-07-29T02:10:32;2.80;;;1.15;;
46835;SDS011;32573;51.290;6.926;2022-07-29T02:13:02;2.85;;;1.00;;
46835;SDS011;32573;51.290;6.926;2022-07-29T02:15:33;2.55;;;1.00;;
46835;SDS011;32573;51.290;6.926;2022-07-29T02:18:04;3.55;;;1.10;;
46835;SDS011;32573;51.290;6.926;2022-07-29T02:20:35;2.55;;;1.10;;
46835;SDS011;32573;51.290;6.926;2022-07-29T02:23:05;2.45;;;1.00;;
46835;SDS011;32573;51.290;6.926;2022-07-29T02:25:38;4.20;;;1.10;;
46835;SDS011;32573;51.290;6.926;2022-07-29T02:28:09;3.63;;;1.10;;
46835;SDS011;32573;51.290;6.926;2022-07-29T02:30:40;2.67;;;1.10;;
46835;SDS011;32573;51.290;6.926;2022-07-29T02:33:12;3.10;;;1.10;;
46835;SDS011;32573;51.290;6.926;2022-07-29T02:35:43;3.03;;;1.27;;
46835;SDS011;32573;51.290;6.926;2022-07-29T02:38:14;2.30;;;1.08;;
46835;SDS011;32573;51.290;6.926;2022-07-29T02:41:03;2.30;;;1.00;;
46835;SDS011;32573;51.290;6.926;2022-07-29T02:43:35;3.00;;;1.20;;
46835;SDS011;32573;51.290;6.926;2022-07-29T02:46:08;3.20;;;1.30;;
46835;SDS011;32573;51.290;6.926;2022-07-29T02:48:56;4.85;;;1.40;;
46835;SDS011;32573;51.290;6.926;2022-07-29T02:51:32;4.95;;;1.40;;
46835;SDS011;32573;51.290;6.926;2022-07-29T02:54:11;3.78;;;1.40;;
46835;SDS011;32573;51.290;6.926;2022-07-29T02:56:47;3.20;;;1.30;;
46835;SDS011;32573;51.290;6.926;2022-07-29T02:59:20;2.90;;;1.20;;
46835;SDS011;32573;51.290;6.926;2022-07-29T03:01:54;3.70;;;1.50;;
46835;SDS011;32573;51.290;6.926;2022-07-29T03:04:25;3.47;;;1.30;;
46835;SDS011;32573;51.290;6.926;2022-07-29T03:06:56;3.35;;;1.40;;
46835;SDS011;32573;51.290;6.926;2022-07-29T03:09:27;4.55;;;1.60;;
46835;SDS011;32573;51.290;6.926;2022-07-29T03:11:57;4.18;;;1.55;;
46835;SDS011;32573;51.290;6.926;2022-07-29T03:14:26;4.85;;;1.85;;
46835;SDS011;32573;51.290;6.926;2022-07-29T03:16:56;3.58;;;1.40;;
46835;SDS011;32573;51.290;6.926;2022-07-29T03:19:26;5.30;;;1.67;;
46835;SDS011;32573;51.290;6.926;2022-07-29T03:21:55;7.30;;;1.55;;
46835;SDS011;32573;51.290;6.926;2022-07-29T03:24:28;3.22;;;1.45;;
46835;SDS011;32573;51.290;6.926;2022-07-29T03:26:58;5.22;;;1.60;;
46835;SDS011;32573;51.290;6.926;2022-07-29T03:29:27;4.63;;;1.58;;
46835;SDS011;32573;51.290;6.926;2022-07-29T03:32:02;4.88;;;1.67;;
46835;SDS011;32573;51.290;6.926;2022-07-29T03:37:05;5.07;;;1.60;;
46835;SDS011;32573;51.290;6.926;2022-07-29T03:39:36;3.10;;;1.20;;
46835;SDS011;32573;51.290;6.926;2022-07-29T03:42:10;3.35;;;1.48;;
46835;SDS011;32573;51.290;6.926;2022-07-29T03:44:40;3.53;;;1.38;;
46835;SDS011;32573;51.290;6.926;2022-07-29T03:47:12;3.92;;;1.38;;
46835;SDS011;32573;51.290;6.926;2022-07-29T03:49:42;3.88;;;1.48;;
46835;SDS011;32573;51.290;6.926;2022-07-29T03:52:14;3.08;;;1.25;;
46835;SDS011;32573;51.290;6.926;2022-07-29T03:54:43;4.75;;;1.50;;
46835;SDS011;32573;51.290;6.926;2022-07-29T03:57:12;4.70;;;1.52;;
46835;SDS011;32573;51.290;6.926;2022-07-29T03:59:43;3.25;;;1.35;;
46835;SDS011;32573;51.290;6.926;2022-07-29T04:02:13;3.22;;;1.40;;
46835;SDS011;32573;51.290;6.926;2022-07-29T04:04:48;3.90;;;1.40;;
46835;SDS011;32573;51.290;6.926;2022-07-29T04:07:17;4.10;;;1.40;;
46835;SDS011;32573;51.290;6.926;2022-07-29T04:09:45;4.00;;;1.42;;
46835;SDS011;32573;51.290;6.926;2022-07-29T04:12:14;4.32;;;1.42;;
46835;SDS011;32573;51.290;6.926;2022-07-29T04:14:42;3.95;;;1.67;;
46835;SDS011;32573;51.290;6.926;2022-07-29T04:17:10;4.95;;;1.60;;
46835;SDS011;32573;51.290;6.926;2022-07-29T04:19:40;3.58;;;1.40;;
46835;SDS011;32573;51.290;6.926;2022-07-29T04:22:08;3.13;;;1.20;;
46835;SDS011;32573;51.290;6.926;2022-07-29T04:24:37;3.95;;;1.52;;
46835;SDS011;32573;51.290;6.926;2022-07-29T04:27:10;3.80;;;1.55;;
46835;SDS011;32573;51.290;6.926;2022-07-29T04:29:38;4.10;;;1.77;;
46835;SDS011;32573;51.290;6.926;2022-07-29T04:34:52;3.47;;;1.60;;
46835;SDS011;32573;51.290;6.926;2022-07-29T04:37:21;4.15;;;1.50;;
46835;SDS011;32573;51.290;6.926;2022-07-29T04:39:49;4.20;;;1.33;;
46835;SDS011;32573;51.290;6.926;2022-07-29T04:42:18;3.55;;;1.48;;
46835;SDS011;32573;51.290;6.926;2022-07-29T04:44:53;3.15;;;1.40;;
46835;SDS011;32573;51.290;6.926;2022-07-29T04:47:22;3.40;;;1.50;;
46835;SDS011;32573;51.290;6.926;2022-07-29T04:49:50;4.40;;;1.60;;
46835;SDS011;32573;51.290;6.926;2022-07-29T04:52:20;5.07;;;1.30;;
46835;SDS011;32573;51.290;6.926;2022-07-29T04:54:49;3.05;;;1.25;;
46835;SDS011;32573;51.290;6.926;2022-07-29T04:57:17;3.13;;;1.20;;
46835;SDS011;32573;51.290;6.926;2022-07-29T04:59:45;2.60;;;1.17;;
46835;SDS011;32573;51.290;6.926;2022-07-29T05:02:14;2.95;;;1.17;;
46835;SDS011;32573;51.290;6.926;2022-07-29T05:04:42;4.03;;;1.25;;
46835;SDS011;32573;51.290;6.926;2022-07-29T05:07:11;3.33;;;1.20;;
46835;SDS011;32573;51.290;6.926;2022-07-29T05:09:40;2.90;;;1.30;;
46835;SDS011;32573;51.290;6.926;2022-07-29T05:12:09;3.05;;;1.25;;
46835;SDS011;32573;51.290;6.926;2022-07-29T05:14:37;2.78;;;1.20;;
46835;SDS011;32573;51.290;6.926;2022-07-29T05:17:06;2.38;;;1.00;;
46835;SDS011;32573;51.290;6.926;2022-07-29T05:19:34;4.80;;;1.30;;
46835;SDS011;32573;51.290;6.926;2022-07-29T05:22:05;2.95;;;1.23;;
46835;SDS011;32573;51.290;6.926;2022-07-29T05:24:34;4.20;;;1.38;;
46835;SDS011;32573;51.290;6.926;2022-07-29T05:27:04;3.55;;;1.10;;
46835;SDS011;32573;51.290;6.926;2022-07-29T05:29:32;3.20;;;1.30;;
46835;SDS011;32573;51.290;6.926;2022-07-29T05:32:11;3.15;;;1.20;;
46835;SDS011;32573;51.290;6.926;2022-07-29T05:34:40;2.88;;;1.23;;
46835;SDS011;32573;51.290;6.926;2022-07-29T05:37:17;3.33;;;1.38;;
46835;SDS011;32573;51.290;6.926;2022-07-29T05:39:46;3.90;;;1.20;;
46835;SDS011;32573;51.290;6.926;2022-07-29T05:42:24;3.03;;;1.10;;
46835;SDS011;32573;51.290;6.926;2022-07-29T05:44:53;2.55;;;1.20;;
46835;SDS011;32573;51.290;6.926;2022-07-29T05:47:22;2.00;;;1.00;;
46835;SDS011;32573;51.290;6.926;2022-07-29T05:49:50;3.28;;;1.30;;
46835;SDS011;32573;51.290;6.926;2022-07-29T05:52:19;3.38;;;1.20;;
46835;SDS011;32573;51.290;6.926;2022-07-29T05:54:47;3.35;;;1.30;;
46835;SDS011;32573;51.290;6.926;2022-07-29T05:57:17;2.80;;;1.20;;
46835;SDS011;32573;51.290;6.926;2022-07-29T05:59:47;3.67;;;1.17;;
46835;SDS011;32573;51.290;6.926;2022-07-29T06:02:17;3.22;;;1.30;;
46835;SDS011;32573;51.290;6.926;2022-07-29T06:04:45;2.88;;;1.27;;
46835;SDS011;32573;51.290;6.926;2022-07-29T06:07:14;2.70;;;1.08;;
46835;SDS011;32573;51.290;6.926;2022-07-29T06:09:43;2.90;;;1.15;;
46835;SDS011;32573;51.290;6.926;2022-07-29T06:12:11;4.72;;;1.20;;
46835;SDS011;32573;51.290;6.926;2022-07-29T06:14:40;4.15;;;1.38;;
46835;SDS011;32573;51.290;6.926;2022-07-29T06:17:09;2.72;;;1.20;;
46835;SDS011;32573;51.290;6.926;2022-07-29T06:19:38;3.55;;;1.30;;
46835;SDS011;32573;51.290;6.926;2022-07-29T06:22:07;2.78;;;1.10;;
46835;SDS011;32573;51.290;6.926;2022-07-29T06:24:35;2.60;;;1.10;;
46835;SDS011;32573;51.290;6.926;2022-07-29T06:27:08;3.10;;;1.20;;
46835;SDS011;32573;51.290;6.926;2022-07-29T06:29:36;3.90;;;1.17;;
46835;SDS011;32573;51.290;6.926;2022-07-29T06:32:05;2.90;;;1.00;;
46835;SDS011;32573;51.290;6.926;2022-07-29T06:34:37;3.03;;;1.25;;
46835;SDS011;32573;51.290;6.926;2022-07-29T06:37:08;3.50;;;1.15;;
46835;SDS011;32573;51.290;6.926;2022-07-29T06:39:41;3.05;;;1.30;;
46835;SDS011;32573;51.290;6.926;2022-07-29T06:42:09;3.42;;;1.30;;
46835;SDS011;32573;51.290;6.926;2022-07-29T06:44:38;2.10;;;1.08;;
46835;SDS011;32573;51.290;6.926;2022-07-29T06:47:06;2.78;;;1.10;;
46835;SDS011;32573;51.290;6.926;2022-07-29T06:49:35;2.20;;;1.00;;
46835;SDS011;32573;51.290;6.926;2022-07-29T06:52:04;2.10;;;0.98;;
46835;SDS011;32573;51.290;6.926;2022-07-29T06:54:33;2.38;;;1.00;;
46835;SDS011;32573;51.290;6.926;2022-07-29T06:57:01;2.70;;;1.10;;
46835;SDS011;32573;51.290;6.926;2022-07-29T06:59:29;3.70;;;1.27;;
46835;SDS011;32573;51.290;6.926;2022-07-29T07:02:01;3.38;;;1.17;;
46835;SDS011;32573;51.290;6.926;2022-07-29T07:04:30;4.70;;;1.15;;
46835;SDS011;32573;51.290;6.926;2022-07-29T07:07:00;2.88;;;1.10;;
46835;SDS011;32573;51.290;6.926;2022-07-29T07:09:28;3.88;;;1.20;;
46835;SDS011;32573;51.290;6.926;2022-07-29T07:12:06;3.58;;;1.20;;
46835;SDS011;32573;51.290;6.926;2022-07-29T07:14:35;2.70;;;0.98;;
46835;SDS011;32573;51.290;6.926;2022-07-29T07:17:04;3.00;;;1.00;;
46835;SDS011;32573;51.290;6.926;2022-07-29T07:19:34;3.72;;;1.10;;
46835;SDS011;32573;51.290;6.926;2022-07-29T07:22:03;2.60;;;1.13;;
46835;SDS011;32573;51.290;6.926;2022-07-29T07:24:32;2.78;;;1.10;;
46835;SDS011;32573;51.290;6.926;2022-07-29T07:27:00;2.45;;;1.10;;
46835;SDS011;32573;51.290;6.926;2022-07-29T07:29:28;2.65;;;1.10;;
46835;SDS011;32573;51.290;6.926;2022-07-29T07:31:57;2.90;;;1.20;;
46835;SDS011;32573;51.290;6.926;2022-07-29T07:34:27;9.90;;;2.75;;
46835;SDS011;32573;51.290;6.926;2022-07-29T07:36:56;6.53;;;1.90;;
46835;SDS011;32573;51.290;6.926;2022-07-29T07:39:26;4.28;;;1.65;;
46835;SDS011;32573;51.290;6.926;2022-07-29T07:41:54;14.65;;;4.53;;
46835;SDS011;32573;51.290;6.926;2022-07-29T07:44:23;6.63;;;2.72;;
46835;SDS011;32573;51.290;6.926;2022-07-29T07:46:51;4.80;;;2.10;;
46835;SDS011;32573;51.290;6.926;2022-07-29T07:49:20;7.13;;;1.58;;
46835;SDS011;32573;51.290;6.926;2022-07-29T07:51:49;4.82;;;1.80;;
46835;SDS011;32573;51.290;6.926;2022-07-29T07:54:17;3.63;;;1.45;;
46835;SDS011;32573;51.290;6.926;2022-07-29T07:56:48;4.20;;;1.52;;
46835;SDS011;32573;51.290;6.926;2022-07-29T07:59:19;5.68;;;1.50;;
46835;SDS011;32573;51.290;6.926;2022-07-29T08:01:47;3.65;;;1.48;;
46835;SDS011;32573;51.290;6.926;2022-07-29T08:04:22;3.90;;;1.63;;
46835;SDS011;32573;51.290;6.926;2022-07-29T08:06:55;3.67;;;1.50;;
46835;SDS011;32573;51.290;6.926;2022-07-29T08:09:24;3.70;;;1.50;;
46835;SDS011;32573;51.290;6.926;2022-07-29T08:11:57;3.88;;;1.60;;
46835;SDS011;32573;51.290;6.926;2022-07-29T08:14:26;3.40;;;1.40;;
46835;SDS011;32573;51.290;6.926;2022-07-29T08:16:54;4.68;;;1.70;;
46835;SDS011;32573;51.290;6.926;2022-07-29T08:19:23;3.95;;;1.50;;
46835;SDS011;32573;51.290;6.926;2022-07-29T08:21:51;4.53;;;1.63;;
46835;SDS011;32573;51.290;6.926;2022-07-29T08:24:21;2.97;;;1.30;;
46835;SDS011;32573;51.290;6.926;2022-07-29T08:27:08;3.63;;;1.40;;
46835;SDS011;32573;51.290;6.926;2022-07-29T08:29:56;4.70;;;1.83;;
46835;SDS011;32573;51.290;6.926;2022-07-29T08:32:25;4.05;;;1.40;;
46835;SDS011;32573;51.290;6.926;2022-07-29T08:35:15;3.80;;;1.67;;
46835;SDS011;32573;51.290;6.926;2022-07-29T08:37:43;3.67;;;1.70;;
46835;SDS011;32573;51.290;6.926;2022-07-29T08:40:12;4.00;;;1.60;;
46835;SDS011;32573;51.290;6.926;2022-07-29T08:42:43;5.05;;;1.48;;
46835;SDS011;32573;51.290;6.926;2022-07-29T08:45:11;4.50;;;1.70;;
46835;SDS011;32573;51.290;6.926;2022-07-29T08:47:40;3.38;;;1.50;;
46835;SDS011;32573;51.290;6.926;2022-07-29T08:50:12;3.08;;;1.50;;
46835;SDS011;32573;51.290;6.926;2022-07-29T08:52:41;4.57;;;1.80;;
46835;SDS011;32573;51.290;6.926;2022-07-29T08:55:10;5.30;;;1.80;;
46835;SDS011;32573;51.290;6.926;2022-07-29T08:57:38;4.22;;;1.60;;
46835;SDS011;32573;51.290;6.926;2022-07-29T09:00:21;6.20;;;1.58;;
46835;SDS011;32573;51.290;6.926;2022-07-29T09:02:54;4.82;;;1.80;;
46835;SDS011;32573;51.290;6.926;2022-07-29T09:05:25;6.05;;;2.08;;
46835;SDS011;32573;51.290;6.926;2022-07-29T09:07:54;4.28;;;2.03;;
46835;SDS011;32573;51.290;6.926;2022-07-29T09:10:23;6.05;;;2.03;;
46835;SDS011;32573;51.290;6.926;2022-07-29T09:12:51;5.97;;;2.08;;
46835;SDS011;32573;51.290;6.926;2022-07-29T09:15:23;5.85;;;2.20;;
46835;SDS011;32573;51.290;6.926;2022-07-29T09:17:51;4.72;;;2.03;;
46835;SDS011;32573;51.290;6.926;2022-07-29T09:20:22;3.90;;;2.05;;
46835;SDS011;32573;51.290;6.926;2022-07-29T09:22:51;3.72;;;1.95;;
46835;SDS011;32573;51.290;6.926;2022-07-29T09:25:33;5.63;;;2.33;;
46835;SDS011;32573;51.290;6.926;2022-07-29T09:28:05;3.63;;;1.90;;
46835;SDS011;32573;51.290;6.926;2022-07-29T09:30:36;4.32;;;2.08;;
46835;SDS011;32573;51.290;6.926;2022-07-29T09:33:17;4.13;;;1.98;;
46835;SDS011;32573;51.290;6.926;2022-07-29T09:35:57;3.90;;;1.95;;
46835;SDS011;32573;51.290;6.926;2022-07-29T09:38:27;4.63;;;2.03;;
46835;SDS011;32573;51.290;6.926;2022-07-29T09:40:56;4.95;;;1.90;;
46835;SDS011;32573;51.290;6.926;2022-07-29T09:43:32;4.03;;;1.92;;
46835;SDS011;32573;51.290;6.926;2022-07-29T09:46:10;4.72;;;1.83;;
46835;SDS011;32573;51.290;6.926;2022-07-29T09:48:39;4.35;;;1.85;;
46835;SDS011;32573;51.290;6.926;2022-07-29T09:51:16;4.45;;;1.92;;
46835;SDS011;32573;51.290;6.926;2022-07-29T09:53:48;4.22;;;1.98;;
46835;SDS011;32573;51.290;6.926;2022-07-29T09:56:19;4.95;;;1.83;;
46835;SDS011;32573;51.290;6.926;2022-07-29T09:58:47;4.68;;;1.90;;
46835;SDS011;32573;51.290;6.926;2022-07-29T10:01:34;3.17;;;1.52;;
46835;SDS011;32573;51.290;6.926;2022-07-29T10:04:03;4.63;;;1.70;;
46835;SDS011;32573;51.290;6.926;2022-07-29T10:06:32;4.22;;;2.10;;
46835;SDS011;32573;51.290;6.926;2022-07-29T10:09:07;3.70;;;1.73;;
46835;SDS011;32573;51.290;6.926;2022-07-29T10:11:36;3.75;;;1.85;;
46835;SDS011;32573;51.290;6.926;2022-07-29T10:14:15;3.72;;;1.70;;
46835;SDS011;32573;51.290;6.926;2022-07-29T10:16:45;3.38;;;1.60;;
46835;SDS011;32573;51.290;6.926;2022-07-29T10:19:14;3.20;;;1.63;;
46835;SDS011;32573;51.290;6.926;2022-07-29T10:21:43;3.50;;;1.60;;
46835;SDS011;32573;51.290;6.926;2022-07-29T10:24:12;4.95;;;2.15;;
46835;SDS011;32573;51.290;6.926;2022-07-29T10:26:41;3.50;;;1.60;;
46835;SDS011;32573;51.290;6.926;2022-07-29T10:29:09;3.75;;;1.88;;
46835;SDS011;32573;51.290;6.926;2022-07-29T10:31:40;3.47;;;1.73;;
46835;SDS011;32573;51.290;6.926;2022-07-29T10:34:19;4.03;;;1.50;;
46835;SDS011;32573;51.290;6.926;2022-07-29T10:37:01;4.32;;;1.73;;
46835;SDS011;32573;51.290;6.926;2022-07-29T10:39:40;4.20;;;1.80;;
46835;SDS011;32573;51.290;6.926;2022-07-29T10:42:20;4.43;;;1.48;;
46835;SDS011;32573;51.290;6.926;2022-07-29T10:45:00;4.13;;;1.65;;
46835;SDS011;32573;51.290;6.926;2022-07-29T10:47:31;3.35;;;1.80;;
46835;SDS011;32573;51.290;6.926;2022-07-29T10:50:03;6.47;;;1.83;;
46835;SDS011;32573;51.290;6.926;2022-07-29T10:52:51;3.25;;;1.55;;
46835;SDS011;32573;51.290;6.926;2022-07-29T10:55:32;4.43;;;1.52;;
46835;SDS011;32573;51.290;6.926;2022-07-29T10:58:13;3.63;;;1.60;;
46835;SDS011;32573;51.290;6.926;2022-07-29T11:00:45;4.30;;;1.65;;
46835;SDS011;32573;51.290;6.926;2022-07-29T11:06:17;4.07;;;1.58;;
46835;SDS011;32573;51.290;6.926;2022-07-29T11:12:01;5.43;;;2.25;;
46835;SDS011;32573;51.290;6.926;2022-07-29T11:17:26;4.65;;;1.98;;
46835;SDS011;32573;51.290;6.926;2022-07-29T11:20:30;3.85;;;1.63;;
46835;SDS011;32573;51.290;6.926;2022-07-29T11:23:00;4.85;;;1.90;;
46835;SDS011;32573;51.290;6.926;2022-07-29T11:25:30;3.92;;;1.77;;
46835;SDS011;32573;51.290;6.926;2022-07-29T11:28:18;3.97;;;1.80;;
46835;SDS011;32573;51.290;6.926;2022-07-29T11:33:28;4.20;;;1.92;;
46835;SDS011;32573;51.290;6.926;2022-07-29T11:36:17;5.00;;;2.28;;
46835;SDS011;32573;51.290;6.926;2022-07-29T11:45:10;6.03;;;2.63;;
46835;SDS011;32573;51.290;6.926;2022-07-29T11:48:01;4.85;;;1.90;;
46835;SDS011;32573;51.290;6.926;2022-07-29T11:50:51;4.05;;;1.80;;
46835;SDS011;32573;51.290;6.926;2022-07-29T11:53:20;3.35;;;1.50;;
46835;SDS011;32573;51.290;6.926;2022-07-29T11:55:53;6.15;;;1.88;;
46835;SDS011;32573;51.290;6.926;2022-07-29T11:58:43;4.88;;;1.58;;
46835;SDS011;32573;51.290;6.926;2022-07-29T12:01:13;6.20;;;1.80;;
46835;SDS011;32573;51.290;6.926;2022-07-29T12:03:41;3.67;;;1.70;;
46835;SDS011;32573;51.290;6.926;2022-07-29T12:06:11;5.95;;;1.80;;
46835;SDS011;32573;51.290;6.926;2022-07-29T12:08:44;4.22;;;1.70;;
46835;SDS011;32573;51.290;6.926;2022-07-29T12:11:18;3.58;;;1.65;;
46835;SDS011;32573;51.290;6.926;2022-07-29T12:13:49;3.67;;;1.60;;
46835;SDS011;32573;51.290;6.926;2022-07-29T12:16:19;5.10;;;1.50;;
46835;SDS011;32573;51.290;6.926;2022-07-29T12:18:58;4.32;;;1.55;;
46835;SDS011;32573;51.290;6.926;2022-07-29T12:21:35;3.63;;;1.70;;
46835;SDS011;32573;51.290;6.926;2022-07-29T12:24:25;3.47;;;1.60;;
46835;SDS011;32573;51.290;6.926;2022-07-29T12:26:55;3.40;;;1.50;;
46835;SDS011;32573;51.290;6.926;2022-07-29T12:29:25;4.47;;;1.80;;
46835;SDS011;32573;51.290;6.926;2022-07-29T12:32:01;3.28;;;1.55;;
46835;SDS011;32573;51.290;6.926;2022-07-29T12:34:41;3.65;;;1.80;;
46835;SDS011;32573;51.290;6.926;2022-07-29T12:37:10;6.43;;;2.13;;
46835;SDS011;32573;51.290;6.926;2022-07-29T12:39:39;5.70;;;1.80;;
46835;SDS011;32573;51.290;6.926;2022-07-29T12:42:13;5.97;;;2.13;;
46835;SDS011;32573;51.290;6.926;2022-07-29T12:44:45;5.38;;;1.95;;
46835;SDS011;32573;51.290;6.926;2022-07-29T12:47:15;4.68;;;2.00;;
46835;SDS011;32573;51.290;6.926;2022-07-29T12:49:44;4.38;;;2.00;;
46835;SDS011;32573;51.290;6.926;2022-07-29T12:52:22;3.70;;;1.77;;
46835;SDS011;32573;51.290;6.926;2022-07-29T12:54:51;4.10;;;1.80;;
46835;SDS011;32573;51.290;6.926;2022-07-29T12:57:21;4.88;;;2.00;;
46835;SDS011;32573;51.290;6.926;2022-07-29T13:00:00;4.40;;;2.08;;
46835;SDS011;32573;51.290;6.926;2022-07-29T13:02:32;5.80;;;2.03;;
46835;SDS011;32573;51.290;6.926;2022-07-29T13:05:03;4.22;;;1.77;;
46835;SDS011;32573;51.290;6.926;2022-07-29T13:07:33;5.30;;;2.08;;
46835;SDS011;32573;51.290;6.926;2022-07-29T13:10:22;5.43;;;2.05;;
46835;SDS011;32573;51.290;6.926;2022-07-29T13:13:02;5.35;;;1.90;;
46835;SDS011;32573;51.290;6.926;2022-07-29T13:15:32;4.07;;;1.70;;
46835;SDS011;32573;51.290;6.926;2022-07-29T13:18:01;4.38;;;1.83;;
46835;SDS011;32573;51.290;6.926;2022-07-29T13:20:30;6.03;;;1.95;;
46835;SDS011;32573;51.290;6.926;2022-07-29T13:23:00;4.45;;;1.88;;
46835;SDS011;32573;51.290;6.926;2022-07-29T13:25:29;4.90;;;1.90;;
46835;SDS011;32573;51.290;6.926;2022-07-29T13:27:59;6.35;;;1.95;;
46835;SDS011;32573;51.290;6.926;2022-07-29T13:30:29;3.22;;;1.70;;
46835;SDS011;32573;51.290;6.926;2022-07-29T13:32:57;5.18;;;2.10;;
46835;SDS011;32573;51.290;6.926;2022-07-29T13:35:26;6.20;;;1.92;;
46835;SDS011;32573;51.290;6.926;2022-07-29T13:37:56;6.38;;;2.30;;
46835;SDS011;32573;51.290;6.926;2022-07-29T13:40:24;3.75;;;1.90;;
46835;SDS011;32573;51.290;6.926;2022-07-29T13:42:53;5.03;;;1.90;;
46835;SDS011;32573;51.290;6.926;2022-07-29T13:45:21;5.13;;;1.92;;
46835;SDS011;32573;51.290;6.926;2022-07-29T13:47:56;3.83;;;1.83;;
46835;SDS011;32573;51.290;6.926;2022-07-29T13:50:24;6.93;;;2.15;;
46835;SDS011;32573;51.290;6.926;2022-07-29T13:52:53;6.88;;;2.10;;
46835;SDS011;32573;51.290;6.926;2022-07-29T13:55:21;4.40;;;1.92;;
46835;SDS011;32573;51.290;6.926;2022-07-29T13:57:50;4.60;;;2.08;;
46835;SDS011;32573;51.290;6.926;2022-07-29T14:00:18;4.63;;;2.03;;
46835;SDS011;32573;51.290;6.926;2022-07-29T14:02:50;5.20;;;1.90;;
46835;SDS011;32573;51.290;6.926;2022-07-29T14:05:20;4.68;;;1.80;;
46835;SDS011;32573;51.290;6.926;2022-07-29T14:07:48;4.18;;;1.60;;
46835;SDS011;32573;51.290;6.926;2022-07-29T14:10:17;4.28;;;1.70;;
46835;SDS011;32573;51.290;6.926;2022-07-29T14:12:46;4.97;;;1.85;;
46835;SDS011;32573;51.290;6.926;2022-07-29T14:15:14;4.18;;;1.92;;
46835;SDS011;32573;51.290;6.926;2022-07-29T14:17:42;4.22;;;1.73;;
46835;SDS011;32573;51.290;6.926;2022-07-29T14:20:11;4.32;;;1.63;;
46835;SDS011;32573;51.290;6.926;2022-07-29T14:22:41;3.30;;;1.58;;
46835;SDS011;32573;51.290;6.926;2022-07-29T14:25:11;4.00;;;2.30;;
46835;SDS011;32573;51.290;6.926;2022-07-29T14:27:41;3.88;;;1.77;;
46835;SDS011;32573;51.290;6.926;2022-07-29T14:30:10;3.80;;;1.80;;
46835;SDS011;32573;51.290;6.926;2022-07-29T14:32:39;4.15;;;1.70;;
46835;SDS011;32573;51.290;6.926;2022-07-29T14:35:10;3.50;;;1.60;;
46835;SDS011;32573;51.290;6.926;2022-07-29T14:37:46;5.40;;;1.98;;
46835;SDS011;32573;51.290;6.926;2022-07-29T14:40:14;4.03;;;1.75;;
46835;SDS011;32573;51.290;6.926;2022-07-29T14:42:42;4.97;;;2.13;;
46835;SDS011;32573;51.290;6.926;2022-07-29T14:45:11;5.85;;;2.50;;
46835;SDS011;32573;51.290;6.926;2022-07-29T14:47:39;5.63;;;2.53;;
46835;SDS011;32573;51.290;6.926;2022-07-29T14:50:08;6.28;;;2.95;;
46835;SDS011;32573;51.290;6.926;2022-07-29T14:52:37;4.32;;;2.03;;
46835;SDS011;32573;51.290;6.926;2022-07-29T14:55:07;4.55;;;2.40;;
46835;SDS011;32573;51.290;6.926;2022-07-29T14:57:45;4.63;;;1.95;;
46835;SDS011;32573;51.290;6.926;2022-07-29T15:00:14;5.55;;;2.00;;
46835;SDS011;32573;51.290;6.926;2022-07-29T15:02:43;4.35;;;2.10;;
46835;SDS011;32573;51.290;6.926;2022-07-29T15:05:28;5.60;;;2.30;;
46835;SDS011;32573;51.290;6.926;2022-07-29T15:07:56;6.18;;;2.38;;
46835;SDS011;32573;51.290;6.926;2022-07-29T15:10:27;4.55;;;2.10;;
46835;SDS011;32573;51.290;6.926;2022-07-29T15:12:55;4.07;;;1.90;;
46835;SDS011;32573;51.290;6.926;2022-07-29T15:15:24;4.32;;;1.95;;
46835;SDS011;32573;51.290;6.926;2022-07-29T15:17:53;4.32;;;1.70;;
46835;SDS011;32573;51.290;6.926;2022-07-29T15:20:21;4.80;;;2.00;;
46835;SDS011;32573;51.290;6.926;2022-07-29T15:22:52;5.18;;;2.08;;
46835;SDS011;32573;51.290;6.926;2022-07-29T15:25:22;3.67;;;1.73;;
46835;SDS011;32573;51.290;6.926;2022-07-29T15:27:52;4.55;;;2.00;;
46835;SDS011;32573;51.290;6.926;2022-07-29T15:30:27;4.13;;;1.80;;
46835;SDS011;32573;51.290;6.926;2022-07-29T15:33:00;3.78;;;1.70;;
46835;SDS011;32573;51.290;6.926;2022-07-29T15:35:29;4.43;;;2.03;;
46835;SDS011;32573;51.290;6.926;2022-07-29T15:37:58;4.90;;;1.90;;
46835;SDS011;32573;51.290;6.926;2022-07-29T15:40:26;5.32;;;1.90;;